sensor_id;sensor_type;location;lat;lon;timestamp;temperature;humidity
65470;DHT22;52067;50.710;14.492;2023-05-03T00:02:01;8.39;68.09
65470;DHT22;52067;50.710;14.492;2023-05-03T00:04:27;8.15;67.57
65470;DHT22;52067;50.710;14.492;2023-05-03T00:06:53;8.28;68.52
65470;DHT22;52067;50.710;14.492;2023-05-03T00:09:19;8.12;68.04
65470;DHT22;52067;50.710;14.492;2023-05-03T00:11:45;8.15;67.50
65470;DHT22;52067;50.710;14.492;2023-05-03T00:14:10;8.12;67.87
65470;DHT22;52067;50.710;14.492;2023-05-03T00:16:36;8.03;68.59
65470;DHT22;52067;50.710;14.492;2023-05-03T00:19:01;7.89;70.03
65470;DHT22;52067;50.710;14.492;2023-05-03T00:21:26;8.09;68.68
65470;DHT22;52067;50.710;14.492;2023-05-03T00:23:52;8.01;69.04
65470;DHT22;52067;50.710;14.492;2023-05-03T00:26:19;8.01;69.13
65470;DHT22;52067;50.710;14.492;2023-05-03T00:28:45;7.95;69.31
65470;DHT22;52067;50.710;14.492;2023-05-03T00:31:10;7.89;70.21
65470;DHT22;52067;50.710;14.492;2023-05-03T00:33:37;7.98;70.38
65470;DHT22;52067;50.710;14.492;2023-05-03T00:36:12;8.03;69.85
65470;DHT22;52067;50.710;14.492;2023-05-03T00:38:38;7.97;69.71
65470;DHT22;52067;50.710;14.492;2023-05-03T00:41:04;7.89;71.33
65470;DHT22;52067;50.710;14.492;2023-05-03T00:43:31;7.89;71.33
65470;DHT22;52067;50.710;14.492;2023-05-03T00:45:58;7.82;71.33
65470;DHT22;52067;50.710;14.492;2023-05-03T00:48:24;7.50;73.12
65470;DHT22;52067;50.710;14.492;2023-05-03T00:50:50;7.53;71.25
65470;DHT22;52067;50.710;14.492;2023-05-03T00:53:15;7.51;72.03
65470;DHT22;52067;50.710;14.492;2023-05-03T00:55:42;7.15;74.64
65470;DHT22;52067;50.710;14.492;2023-05-03T00:58:09;7.13;73.50
65470;DHT22;52067;50.710;14.492;2023-05-03T01:00:34;7.30;73.59
65470;DHT22;52067;50.710;14.492;2023-05-03T01:03:00;7.31;74.31
65470;DHT22;52067;50.710;14.492;2023-05-03T01:05:27;6.93;75.59
65470;DHT22;52067;50.710;14.492;2023-05-03T01:08:19;6.96;76.14
65470;DHT22;52067;50.710;14.492;2023-05-03T01:10:56;7.13;75.49
65470;DHT22;52067;50.710;14.492;2023-05-03T01:18:47;7.31;73.48
65470;DHT22;52067;50.710;14.492;2023-05-03T01:21:18;7.29;74.15
65470;DHT22;52067;50.710;14.492;2023-05-03T01:24:10;7.27;72.15
65470;DHT22;52067;50.710;14.492;2023-05-03T01:26:38;7.09;72.12
65470;DHT22;52067;50.710;14.492;2023-05-03T01:29:04;7.19;73.33
65470;DHT22;52067;50.710;14.492;2023-05-03T01:31:54;7.20;71.90
65470;DHT22;52067;50.710;14.492;2023-05-03T01:34:45;6.99;73.31
65470;DHT22;52067;50.710;14.492;2023-05-03T01:37:15;6.98;72.89
65470;DHT22;52067;50.710;14.492;2023-05-03T01:40:01;6.55;75.66
65470;DHT22;52067;50.710;14.492;2023-05-03T01:42:29;6.41;76.25
65470;DHT22;52067;50.710;14.492;2023-05-03T01:44:55;6.30;76.30
65470;DHT22;52067;50.710;14.492;2023-05-03T01:47:20;6.14;76.73
65470;DHT22;52067;50.710;14.492;2023-05-03T01:49:47;6.09;76.71
65470;DHT22;52067;50.710;14.492;2023-05-03T01:52:12;5.89;76.38
65470;DHT22;52067;50.710;14.492;2023-05-03T01:54:38;5.81;76.83
65470;DHT22;52067;50.710;14.492;2023-05-03T01:57:03;5.68;77.54
65470;DHT22;52067;50.710;14.492;2023-05-03T01:59:29;5.55;77.77
65470;DHT22;52067;50.710;14.492;2023-05-03T02:01:54;5.35;80.10
65470;DHT22;52067;50.710;14.492;2023-05-03T02:04:20;4.97;81.34
65470;DHT22;52067;50.710;14.492;2023-05-03T02:06:45;4.82;82.59
65470;DHT22;52067;50.710;14.492;2023-05-03T02:09:11;4.96;80.94
65470;DHT22;52067;50.710;14.492;2023-05-03T02:11:36;5.01;80.49
65470;DHT22;52067;50.710;14.492;2023-05-03T02:14:01;4.71;81.75
65470;DHT22;52067;50.710;14.492;2023-05-03T02:16:27;4.59;81.11
65470;DHT22;52067;50.710;14.492;2023-05-03T02:18:53;4.73;81.32
65470;DHT22;52067;50.710;14.492;2023-05-03T02:21:19;4.58;81.06
65470;DHT22;52067;50.710;14.492;2023-05-03T02:23:45;4.73;80.99
65470;DHT22;52067;50.710;14.492;2023-05-03T02:26:11;4.65;81.82
65470;DHT22;52067;50.710;14.492;2023-05-03T02:28:36;4.58;80.81
65470;DHT22;52067;50.710;14.492;2023-05-03T02:31:01;4.65;80.58
65470;DHT22;52067;50.710;14.492;2023-05-03T02:33:27;4.34;81.95
65470;DHT22;52067;50.710;14.492;2023-05-03T02:35:52;4.44;81.34
65470;DHT22;52067;50.710;14.492;2023-05-03T02:38:18;4.53;80.98
65470;DHT22;52067;50.710;14.492;2023-05-03T02:40:44;4.45;80.90
65470;DHT22;52067;50.710;14.492;2023-05-03T02:43:09;4.34;81.50
65470;DHT22;52067;50.710;14.492;2023-05-03T02:45:35;4.41;80.78
65470;DHT22;52067;50.710;14.492;2023-05-03T02:48:01;4.18;81.60
65470;DHT22;52067;50.710;14.492;2023-05-03T02:50:26;4.35;80.91
65470;DHT22;52067;50.710;14.492;2023-05-03T02:52:51;4.24;80.41
65470;DHT22;52067;50.710;14.492;2023-05-03T02:55:17;4.30;80.78
65470;DHT22;52067;50.710;14.492;2023-05-03T02:57:42;4.17;81.41
65470;DHT22;52067;50.710;14.492;2023-05-03T03:00:09;4.24;80.74
65470;DHT22;52067;50.710;14.492;2023-05-03T03:02:35;4.22;80.28
65470;DHT22;52067;50.710;14.492;2023-05-03T03:05:00;4.03;80.72
65470;DHT22;52067;50.710;14.492;2023-05-03T03:07:26;4.00;81.38
65470;DHT22;52067;50.710;14.492;2023-05-03T03:09:51;4.07;81.18
65470;DHT22;52067;50.710;14.492;2023-05-03T03:12:16;3.74;82.28
65470;DHT22;52067;50.710;14.492;2023-05-03T03:14:42;3.87;81.73
65470;DHT22;52067;50.710;14.492;2023-05-03T03:17:10;3.77;81.94
65470;DHT22;52067;50.710;14.492;2023-05-03T03:19:36;3.65;82.06
65470;DHT22;52067;50.710;14.492;2023-05-03T03:22:01;3.43;83.13
65470;DHT22;52067;50.710;14.492;2023-05-03T03:24:26;3.66;83.17
65470;DHT22;52067;50.710;14.492;2023-05-03T03:26:52;3.84;82.29
65470;DHT22;52067;50.710;14.492;2023-05-03T03:29:17;3.80;82.27
65470;DHT22;52067;50.710;14.492;2023-05-03T03:31:42;3.62;82.89
65470;DHT22;52067;50.710;14.492;2023-05-03T03:34:11;3.69;82.80
65470;DHT22;52067;50.710;14.492;2023-05-03T03:36:36;3.65;83.08
65470;DHT22;52067;50.710;14.492;2023-05-03T03:39:03;3.58;83.57
65470;DHT22;52067;50.710;14.492;2023-05-03T03:41:30;3.72;82.79
65470;DHT22;52067;50.710;14.492;2023-05-03T03:43:56;3.66;83.56
65470;DHT22;52067;50.710;14.492;2023-05-03T03:46:21;3.74;83.15
65470;DHT22;52067;50.710;14.492;2023-05-03T03:48:46;3.62;83.85
65470;DHT22;52067;50.710;14.492;2023-05-03T03:51:12;3.79;82.91
65470;DHT22;52067;50.710;14.492;2023-05-03T03:53:37;3.60;83.04
65470;DHT22;52067;50.710;14.492;2023-05-03T03:56:03;3.62;83.60
65470;DHT22;52067;50.710;14.492;2023-05-03T03:58:28;3.76;83.43
65470;DHT22;52067;50.710;14.492;2023-05-03T04:00:54;3.70;83.08
65470;DHT22;52067;50.710;14.492;2023-05-03T04:03:19;3.59;84.42
65470;DHT22;52067;50.710;14.492;2023-05-03T04:05:45;3.63;83.59
65470;DHT22;52067;50.710;14.492;2023-05-03T04:08:10;3.66;83.56
65470;DHT22;52067;50.710;14.492;2023-05-03T04:10:36;3.56;83.69
65470;DHT22;52067;50.710;14.492;2023-05-03T04:13:01;3.51;84.18
65470;DHT22;52067;50.710;14.492;2023-05-03T04:15:27;3.67;83.82
65470;DHT22;52067;50.710;14.492;2023-05-03T04:17:52;3.83;84.39
65470;DHT22;52067;50.710;14.492;2023-05-03T04:20:21;3.94;83.69
65470;DHT22;52067;50.710;14.492;2023-05-03T04:22:47;4.13;83.66
65470;DHT22;52067;50.710;14.492;2023-05-03T04:25:13;4.05;84.35
65470;DHT22;52067;50.710;14.492;2023-05-03T04:27:38;4.05;84.03
65470;DHT22;52067;50.710;14.492;2023-05-03T04:30:04;4.20;84.30
65470;DHT22;52067;50.710;14.492;2023-05-03T04:32:30;4.48;83.53
65470;DHT22;52067;50.710;14.492;2023-05-03T04:35:02;4.59;82.39
65470;DHT22;52067;50.710;14.492;2023-05-03T04:37:28;4.59;82.13
65470;DHT22;52067;50.710;14.492;2023-05-03T04:39:54;4.75;81.73
65470;DHT22;52067;50.710;14.492;2023-05-03T04:42:20;4.92;81.51
65470;DHT22;52067;50.710;14.492;2023-05-03T04:44:45;4.90;81.78
65470;DHT22;52067;50.710;14.492;2023-05-03T04:47:11;4.90;82.79
65470;DHT22;52067;50.710;14.492;2023-05-03T04:49:36;5.20;80.72
65470;DHT22;52067;50.710;14.492;2023-05-03T04:52:03;5.23;81.43
65470;DHT22;52067;50.710;14.492;2023-05-03T04:54:28;5.37;82.33
65470;DHT22;52067;50.710;14.492;2023-05-03T04:56:54;5.50;82.58
65470;DHT22;52067;50.710;14.492;2023-05-03T04:59:19;5.68;82.20
65470;DHT22;52067;50.710;14.492;2023-05-03T05:01:45;5.62;82.87
65470;DHT22;52067;50.710;14.492;2023-05-03T05:04:11;5.66;82.43
65470;DHT22;52067;50.710;14.492;2023-05-03T05:06:37;5.92;82.86
65470;DHT22;52067;50.710;14.492;2023-05-03T05:09:02;6.03;78.09
65470;DHT22;52067;50.710;14.492;2023-05-03T05:11:28;6.34;79.18
65470;DHT22;52067;50.710;14.492;2023-05-03T05:13:54;6.47;77.93
65470;DHT22;52067;50.710;14.492;2023-05-03T05:16:19;6.72;76.63
65470;DHT22;52067;50.710;14.492;2023-05-03T05:18:45;6.93;77.21
65470;DHT22;52067;50.710;14.492;2023-05-03T05:21:10;7.13;74.57
65470;DHT22;52067;50.710;14.492;2023-05-03T05:23:36;7.37;74.37
65470;DHT22;52067;50.710;14.492;2023-05-03T05:26:01;7.61;74.75
65470;DHT22;52067;50.710;14.492;2023-05-03T05:28:28;7.58;73.28
65470;DHT22;52067;50.710;14.492;2023-05-03T05:30:53;7.60;72.82
65470;DHT22;52067;50.710;14.492;2023-05-03T05:33:19;7.66;73.25
65470;DHT22;52067;50.710;14.492;2023-05-03T05:35:46;7.85;72.42
65470;DHT22;52067;50.710;14.492;2023-05-03T05:38:12;7.97;71.63
65470;DHT22;52067;50.710;14.492;2023-05-03T05:40:37;8.03;70.88
65470;DHT22;52067;50.710;14.492;2023-05-03T05:43:03;7.98;71.27
65470;DHT22;52067;50.710;14.492;2023-05-03T05:45:29;7.99;72.33
65470;DHT22;52067;50.710;14.492;2023-05-03T05:47:55;8.22;69.99
65470;DHT22;52067;50.710;14.492;2023-05-03T05:50:20;8.35;69.81
65470;DHT22;52067;50.710;14.492;2023-05-03T05:52:46;8.37;69.21
65470;DHT22;52067;50.710;14.492;2023-05-03T05:55:12;8.37;71.54
65470;DHT22;52067;50.710;14.492;2023-05-03T05:57:38;8.40;68.99
65470;DHT22;52067;50.710;14.492;2023-05-03T06:00:05;8.60;67.35
65470;DHT22;52067;50.710;14.492;2023-05-03T06:02:39;8.56;66.55
65470;DHT22;52067;50.710;14.492;2023-05-03T06:05:05;8.57;68.96
65470;DHT22;52067;50.710;14.492;2023-05-03T06:07:31;8.92;68.28
65470;DHT22;52067;50.710;14.492;2023-05-03T06:09:56;8.92;67.64
65470;DHT22;52067;50.710;14.492;2023-05-03T06:12:22;9.08;67.68
65470;DHT22;52067;50.710;14.492;2023-05-03T06:14:48;9.16;66.04
65470;DHT22;52067;50.710;14.492;2023-05-03T06:17:14;9.28;65.11
65470;DHT22;52067;50.710;14.492;2023-05-03T06:19:40;9.28;66.41
65470;DHT22;52067;50.710;14.492;2023-05-03T06:22:05;9.26;65.36
65470;DHT22;52067;50.710;14.492;2023-05-03T06:24:31;9.42;66.79
65470;DHT22;52067;50.710;14.492;2023-05-03T06:26:57;9.31;65.14
65470;DHT22;52067;50.710;14.492;2023-05-03T06:29:25;9.21;64.52
65470;DHT22;52067;50.710;14.492;2023-05-03T06:31:50;9.25;68.38
65470;DHT22;52067;50.710;14.492;2023-05-03T06:34:18;9.28;65.85
65470;DHT22;52067;50.710;14.492;2023-05-03T06:36:44;9.32;65.63
65470;DHT22;52067;50.710;14.492;2023-05-03T06:39:10;9.15;65.22
65470;DHT22;52067;50.710;14.492;2023-05-03T06:41:35;9.01;66.74
65470;DHT22;52067;50.710;14.492;2023-05-03T06:44:01;9.35;68.88
65470;DHT22;52067;50.710;14.492;2023-05-03T06:46:28;9.50;68.97
65470;DHT22;52067;50.710;14.492;2023-05-03T06:48:53;9.56;65.56
65470;DHT22;52067;50.710;14.492;2023-05-03T06:51:22;9.89;65.74
65470;DHT22;52067;50.710;14.492;2023-05-03T06:53:52;10.27;63.60
65470;DHT22;52067;50.710;14.492;2023-05-03T06:56:17;10.37;64.16
65470;DHT22;52067;50.710;14.492;2023-05-03T06:58:42;10.55;62.86
65470;DHT22;52067;50.710;14.492;2023-05-03T07:01:08;10.38;64.15
65470;DHT22;52067;50.710;14.492;2023-05-03T07:03:33;10.20;64.73
65470;DHT22;52067;50.710;14.492;2023-05-03T07:05:58;10.63;64.21
65470;DHT22;52067;50.710;14.492;2023-05-03T07:08:25;10.76;62.79
65470;DHT22;52067;50.710;14.492;2023-05-03T07:10:50;10.82;61.13
65470;DHT22;52067;50.710;14.492;2023-05-03T07:13:15;10.71;62.06
65470;DHT22;52067;50.710;14.492;2023-05-03T07:15:41;10.55;61.34
65470;DHT22;52067;50.710;14.492;2023-05-03T07:18:06;10.24;62.62
65470;DHT22;52067;50.710;14.492;2023-05-03T07:20:32;10.24;62.43
65470;DHT22;52067;50.710;14.492;2023-05-03T07:22:57;10.24;61.60
65470;DHT22;52067;50.710;14.492;2023-05-03T07:25:22;10.30;61.14
65470;DHT22;52067;50.710;14.492;2023-05-03T07:27:48;10.31;62.01
65470;DHT22;52067;50.710;14.492;2023-05-03T07:30:13;10.38;60.76
65470;DHT22;52067;50.710;14.492;2023-05-03T07:32:39;10.73;60.19
65470;DHT22;52067;50.710;14.492;2023-05-03T07:35:05;10.84;62.47
65470;DHT22;52067;50.710;14.492;2023-05-03T07:37:31;10.77;58.11
65470;DHT22;52067;50.710;14.492;2023-05-03T07:39:56;11.09;57.99
65470;DHT22;52067;50.710;14.492;2023-05-03T07:42:22;11.55;56.23
65470;DHT22;52067;50.710;14.492;2023-05-03T07:44:47;11.32;56.97
65470;DHT22;52067;50.710;14.492;2023-05-03T07:47:13;11.52;57.21
65470;DHT22;52067;50.710;14.492;2023-05-03T07:49:38;11.68;53.07
65470;DHT22;52067;50.710;14.492;2023-05-03T07:52:04;11.52;56.60
65470;DHT22;52067;50.710;14.492;2023-05-03T07:54:29;11.35;53.82
65470;DHT22;52067;50.710;14.492;2023-05-03T07:56:55;10.93;55.13
65470;DHT22;52067;50.710;14.492;2023-05-03T07:59:20;11.31;54.87
65470;DHT22;52067;50.710;14.492;2023-05-03T08:01:46;11.47;56.94
65470;DHT22;52067;50.710;14.492;2023-05-03T08:04:11;11.93;55.54
65470;DHT22;52067;50.710;14.492;2023-05-03T08:06:36;12.03;53.44
65470;DHT22;52067;50.710;14.492;2023-05-03T08:09:03;11.54;56.53
65470;DHT22;52067;50.710;14.492;2023-05-03T08:11:29;11.85;53.64
65470;DHT22;52067;50.710;14.492;2023-05-03T08:13:55;12.41;55.59
65470;DHT22;52067;50.710;14.492;2023-05-03T08:16:20;12.53;53.50
65470;DHT22;52067;50.710;14.492;2023-05-03T08:18:46;12.89;52.52
65470;DHT22;52067;50.710;14.492;2023-05-03T08:21:11;12.95;51.45
65470;DHT22;52067;50.710;14.492;2023-05-03T08:23:38;12.81;51.66
65470;DHT22;52067;50.710;14.492;2023-05-03T08:26:04;12.71;50.94
65470;DHT22;52067;50.710;14.492;2023-05-03T08:28:31;12.22;52.05
65470;DHT22;52067;50.710;14.492;2023-05-03T08:30:57;11.95;51.62
65470;DHT22;52067;50.710;14.492;2023-05-03T08:33:22;12.19;51.97
65470;DHT22;52067;50.710;14.492;2023-05-03T08:35:48;12.30;53.20
65470;DHT22;52067;50.710;14.492;2023-05-03T08:38:13;12.44;51.86
65470;DHT22;52067;50.710;14.492;2023-05-03T08:40:39;12.89;50.96
65470;DHT22;52067;50.710;14.492;2023-05-03T08:43:07;12.88;50.49
65470;DHT22;52067;50.710;14.492;2023-05-03T08:45:33;13.20;49.63
65470;DHT22;52067;50.710;14.492;2023-05-03T08:47:59;12.69;52.11
65470;DHT22;52067;50.710;14.492;2023-05-03T08:50:26;12.95;51.16
65470;DHT22;52067;50.710;14.492;2023-05-03T08:52:51;12.41;52.57
65470;DHT22;52067;50.710;14.492;2023-05-03T08:55:17;12.53;49.27
65470;DHT22;52067;50.710;14.492;2023-05-03T08:57:43;12.80;51.16
65470;DHT22;52067;50.710;14.492;2023-05-03T09:00:09;12.80;50.44
65470;DHT22;52067;50.710;14.492;2023-05-03T09:02:36;13.05;48.40
65470;DHT22;52067;50.710;14.492;2023-05-03T09:07:38;12.98;47.23
65470;DHT22;52067;50.710;14.492;2023-05-03T09:10:21;12.51;48.89
65470;DHT22;52067;50.710;14.492;2023-05-03T09:12:46;11.92;50.68
65470;DHT22;52067;50.710;14.492;2023-05-03T09:15:20;12.37;49.75
65470;DHT22;52067;50.710;14.492;2023-05-03T09:20:34;12.64;49.21
65470;DHT22;52067;50.710;14.492;2023-05-03T09:23:01;12.91;47.60
65470;DHT22;52067;50.710;14.492;2023-05-03T09:25:42;13.14;49.88
65470;DHT22;52067;50.710;14.492;2023-05-03T09:28:08;12.83;48.84
65470;DHT22;52067;50.710;14.492;2023-05-03T09:30:33;12.46;49.33
65470;DHT22;52067;50.710;14.492;2023-05-03T09:32:58;13.02;47.34
65470;DHT22;52067;50.710;14.492;2023-05-03T09:35:24;13.83;43.96
65470;DHT22;52067;50.710;14.492;2023-05-03T09:37:49;14.58;43.18
65470;DHT22;52067;50.710;14.492;2023-05-03T09:40:15;14.56;46.52
65470;DHT22;52067;50.710;14.492;2023-05-03T09:43:09;13.77;47.81
65470;DHT22;52067;50.710;14.492;2023-05-03T09:45:36;13.87;47.43
65470;DHT22;52067;50.710;14.492;2023-05-03T09:48:03;13.97;47.84
65470;DHT22;52067;50.710;14.492;2023-05-03T09:50:33;14.70;45.66
65470;DHT22;52067;50.710;14.492;2023-05-03T09:53:02;14.69;44.69
65470;DHT22;52067;50.710;14.492;2023-05-03T09:55:36;13.83;50.39
65470;DHT22;52067;50.710;14.492;2023-05-03T09:58:03;14.45;43.68
65470;DHT22;52067;50.710;14.492;2023-05-03T10:00:39;14.68;47.92
65470;DHT22;52067;50.710;14.492;2023-05-03T10:03:08;15.16;41.48
65470;DHT22;52067;50.710;14.492;2023-05-03T10:05:42;14.84;45.39
65470;DHT22;52067;50.710;14.492;2023-05-03T10:08:09;15.07;40.06
65470;DHT22;52067;50.710;14.492;2023-05-03T10:10:37;14.90;42.42
65470;DHT22;52067;50.710;14.492;2023-05-03T10:13:04;15.63;46.21
65470;DHT22;52067;50.710;14.492;2023-05-03T10:15:30;16.23;42.55
65470;DHT22;52067;50.710;14.492;2023-05-03T10:17:58;15.69;40.55
65470;DHT22;52067;50.710;14.492;2023-05-03T10:20:43;16.02;40.51
65470;DHT22;52067;50.710;14.492;2023-05-03T10:23:11;17.73;38.71
65470;DHT22;52067;50.710;14.492;2023-05-03T10:25:38;19.18;36.07
65470;DHT22;52067;50.710;14.492;2023-05-03T10:28:05;18.61;35.75
65470;DHT22;52067;50.710;14.492;2023-05-03T10:30:32;17.54;41.15
65470;DHT22;52067;50.710;14.492;2023-05-03T10:35:42;16.57;42.44
65470;DHT22;52067;50.710;14.492;2023-05-03T10:38:16;18.15;37.44
65470;DHT22;52067;50.710;14.492;2023-05-03T10:40:43;18.09;38.46
65470;DHT22;52067;50.710;14.492;2023-05-03T10:46:02;18.12;36.28
65470;DHT22;52067;50.710;14.492;2023-05-03T10:48:29;21.09;32.82
65470;DHT22;52067;50.710;14.492;2023-05-03T10:50:56;20.59;34.69
65470;DHT22;52067;50.710;14.492;2023-05-03T10:56:12;20.56;37.20
65470;DHT22;52067;50.710;14.492;2023-05-03T11:01:05;20.24;33.00
65470;DHT22;52067;50.710;14.492;2023-05-03T11:03:42;19.14;33.37
65470;DHT22;52067;50.710;14.492;2023-05-03T11:06:07;18.09;39.41
65470;DHT22;52067;50.710;14.492;2023-05-03T11:08:33;17.47;38.38
65470;DHT22;52067;50.710;14.492;2023-05-03T11:11:02;17.78;36.41
65470;DHT22;52067;50.710;14.492;2023-05-03T11:13:34;18.35;37.96
65470;DHT22;52067;50.710;14.492;2023-05-03T11:16:01;17.18;38.52
65470;DHT22;52067;50.710;14.492;2023-05-03T11:18:27;17.84;37.17
65470;DHT22;52067;50.710;14.492;2023-05-03T11:20:53;20.30;33.16
65470;DHT22;52067;50.710;14.492;2023-05-03T11:23:18;20.49;30.50
65470;DHT22;52067;50.710;14.492;2023-05-03T11:25:50;20.33;32.91
65470;DHT22;52067;50.710;14.492;2023-05-03T11:28:16;19.86;30.56
65470;DHT22;52067;50.710;14.492;2023-05-03T11:30:41;19.93;34.79
65470;DHT22;52067;50.710;14.492;2023-05-03T11:33:06;21.05;34.74
65470;DHT22;52067;50.710;14.492;2023-05-03T11:35:32;21.54;31.08
65470;DHT22;52067;50.710;14.492;2023-05-03T11:37:58;20.68;33.69
65470;DHT22;52067;50.710;14.492;2023-05-03T11:40:24;19.63;31.43
65470;DHT22;52067;50.710;14.492;2023-05-03T11:42:57;20.75;32.34
65470;DHT22;52067;50.710;14.492;2023-05-03T11:45:24;19.97;35.73
65470;DHT22;52067;50.710;14.492;2023-05-03T11:47:51;19.31;36.63
65470;DHT22;52067;50.710;14.492;2023-05-03T11:50:18;19.24;35.61
65470;DHT22;52067;50.710;14.492;2023-05-03T11:52:44;19.87;35.64
65470;DHT22;52067;50.710;14.492;2023-05-03T11:55:10;21.26;32.95
65470;DHT22;52067;50.710;14.492;2023-05-03T11:57:36;19.97;34.39
65470;DHT22;52067;50.710;14.492;2023-05-03T12:00:13;21.14;29.71
65470;DHT22;52067;50.710;14.492;2023-05-03T12:02:41;21.51;33.86
65470;DHT22;52067;50.710;14.492;2023-05-03T12:05:07;20.92;31.78
65470;DHT22;52067;50.710;14.492;2023-05-03T12:07:33;23.31;32.30
65470;DHT22;52067;50.710;14.492;2023-05-03T12:09:59;20.38;36.74
65470;DHT22;52067;50.710;14.492;2023-05-03T12:12:26;22.32;33.45
65470;DHT22;52067;50.710;14.492;2023-05-03T12:14:59;22.59;29.95
65470;DHT22;52067;50.710;14.492;2023-05-03T12:17:35;18.01;34.08
65470;DHT22;52067;50.710;14.492;2023-05-03T12:20:21;18.56;38.12
65470;DHT22;52067;50.710;14.492;2023-05-03T12:22:48;19.87;37.09
65470;DHT22;52067;50.710;14.492;2023-05-03T12:25:14;21.57;30.95
65470;DHT22;52067;50.710;14.492;2023-05-03T12:27:39;22.36;31.75
65470;DHT22;52067;50.710;14.492;2023-05-03T12:30:05;21.49;33.73
65470;DHT22;52067;50.710;14.492;2023-05-03T12:32:34;22.29;30.74
65470;DHT22;52067;50.710;14.492;2023-05-03T12:35:00;20.89;33.96
65470;DHT22;52067;50.710;14.492;2023-05-03T12:37:25;21.51;31.53
65470;DHT22;52067;50.710;14.492;2023-05-03T12:39:51;22.45;30.62
65470;DHT22;52067;50.710;14.492;2023-05-03T12:42:16;21.51;31.72
65470;DHT22;52067;50.710;14.492;2023-05-03T12:44:41;21.98;31.90
65470;DHT22;52067;50.710;14.492;2023-05-03T12:47:11;22.02;28.99
65470;DHT22;52067;50.710;14.492;2023-05-03T12:49:36;19.38;32.89
65470;DHT22;52067;50.710;14.492;2023-05-03T12:52:02;21.37;31.08
65470;DHT22;52067;50.710;14.492;2023-05-03T12:54:27;22.87;29.79
65470;DHT22;52067;50.710;14.492;2023-05-03T12:56:52;21.81;33.15
65470;DHT22;52067;50.710;14.492;2023-05-03T12:59:18;22.77;27.12
65470;DHT22;52067;50.710;14.492;2023-05-03T13:01:43;21.78;30.14
65470;DHT22;52067;50.710;14.492;2023-05-03T13:04:09;22.81;27.50
65470;DHT22;52067;50.710;14.492;2023-05-03T13:06:36;21.33;32.08
65470;DHT22;52067;50.710;14.492;2023-05-03T13:09:03;22.86;29.30
65470;DHT22;52067;50.710;14.492;2023-05-03T13:11:30;23.17;31.31
65470;DHT22;52067;50.710;14.492;2023-05-03T13:13:55;20.99;34.32
65470;DHT22;52067;50.710;14.492;2023-05-03T13:16:20;22.86;28.48
65470;DHT22;52067;50.710;14.492;2023-05-03T13:18:46;21.80;30.26
65470;DHT22;52067;50.710;14.492;2023-05-03T13:21:12;20.71;34.63
65470;DHT22;52067;50.710;14.492;2023-05-03T13:23:37;21.18;29.99
65470;DHT22;52067;50.710;14.492;2023-05-03T13:26:03;21.90;30.80
65470;DHT22;52067;50.710;14.492;2023-05-03T13:28:28;21.50;29.01
65470;DHT22;52067;50.710;14.492;2023-05-03T13:30:54;23.27;26.51
65470;DHT22;52067;50.710;14.492;2023-05-03T13:33:20;22.48;31.39
65470;DHT22;52067;50.710;14.492;2023-05-03T13:35:45;23.29;30.34
65470;DHT22;52067;50.710;14.492;2023-05-03T13:38:11;22.13;31.09
65470;DHT22;52067;50.710;14.492;2023-05-03T13:40:36;23.07;29.13
65470;DHT22;52067;50.710;14.492;2023-05-03T13:43:01;23.03;28.08
65470;DHT22;52067;50.710;14.492;2023-05-03T13:45:27;22.21;32.70
65470;DHT22;52067;50.710;14.492;2023-05-03T13:47:53;23.06;29.43
65470;DHT22;52067;50.710;14.492;2023-05-03T13:50:19;20.59;34.32
65470;DHT22;52067;50.710;14.492;2023-05-03T13:52:45;20.93;32.82
65470;DHT22;52067;50.710;14.492;2023-05-03T13:55:10;21.53;33.20
65470;DHT22;52067;50.710;14.492;2023-05-03T13:57:36;22.52;30.38
65470;DHT22;52067;50.710;14.492;2023-05-03T14:00:01;22.13;30.79
65470;DHT22;52067;50.710;14.492;2023-05-03T14:02:26;22.84;30.89
65470;DHT22;52067;50.710;14.492;2023-05-03T14:04:52;19.42;34.51
65470;DHT22;52067;50.710;14.492;2023-05-03T14:07:18;21.36;33.84
65470;DHT22;52067;50.710;14.492;2023-05-03T14:09:44;23.08;29.80
65470;DHT22;52067;50.710;14.492;2023-05-03T14:12:09;21.84;32.37
65470;DHT22;52067;50.710;14.492;2023-05-03T14:14:35;20.89;33.14
65470;DHT22;52067;50.710;14.492;2023-05-03T14:17:01;19.72;35.34
65470;DHT22;52067;50.710;14.492;2023-05-03T14:19:26;18.52;37.96
65470;DHT22;52067;50.710;14.492;2023-05-03T14:21:55;18.74;37.93
65470;DHT22;52067;50.710;14.492;2023-05-03T14:24:23;19.39;36.09
65470;DHT22;52067;50.710;14.492;2023-05-03T14:26:48;19.76;34.22
65470;DHT22;52067;50.710;14.492;2023-05-03T14:29:14;19.87;35.28
65470;DHT22;52067;50.710;14.492;2023-05-03T14:31:39;18.98;37.99
65470;DHT22;52067;50.710;14.492;2023-05-03T14:34:05;20.18;33.90
65470;DHT22;52067;50.710;14.492;2023-05-03T14:36:30;21.74;31.68
65470;DHT22;52067;50.710;14.492;2023-05-03T14:39:01;22.61;29.28
65470;DHT22;52067;50.710;14.492;2023-05-03T14:41:27;22.26;32.43
65470;DHT22;52067;50.710;14.492;2023-05-03T14:43:52;22.15;31.51
65470;DHT22;52067;50.710;14.492;2023-05-03T14:46:17;19.90;36.22
65470;DHT22;52067;50.710;14.492;2023-05-03T14:48:43;19.25;34.40
65470;DHT22;52067;50.710;14.492;2023-05-03T14:51:08;20.75;33.33
65470;DHT22;52067;50.710;14.492;2023-05-03T14:53:34;19.47;34.87
65470;DHT22;52067;50.710;14.492;2023-05-03T14:55:59;19.34;34.75
65470;DHT22;52067;50.710;14.492;2023-05-03T14:58:25;21.63;30.79
65470;DHT22;52067;50.710;14.492;2023-05-03T15:00:51;22.87;29.46
65470;DHT22;52067;50.710;14.492;2023-05-03T15:03:17;18.46;36.30
65470;DHT22;52067;50.710;14.492;2023-05-03T15:05:47;19.19;35.78
65470;DHT22;52067;50.710;14.492;2023-05-03T15:08:15;20.86;33.93
65470;DHT22;52067;50.710;14.492;2023-05-03T15:10:41;21.65;32.86
65470;DHT22;52067;50.710;14.492;2023-05-03T15:13:08;18.32;37.14
65470;DHT22;52067;50.710;14.492;2023-05-03T15:15:36;18.42;36.45
65470;DHT22;52067;50.710;14.492;2023-05-03T15:18:01;19.82;34.11
65470;DHT22;52067;50.710;14.492;2023-05-03T15:20:27;17.88;37.36
65470;DHT22;52067;50.710;14.492;2023-05-03T15:22:52;18.91;36.59
65470;DHT22;52067;50.710;14.492;2023-05-03T15:25:18;20.40;32.53
65470;DHT22;52067;50.710;14.492;2023-05-03T15:27:43;19.44;34.88
65470;DHT22;52067;50.710;14.492;2023-05-03T15:30:09;17.40;38.57
65470;DHT22;52067;50.710;14.492;2023-05-03T15:32:36;17.15;39.98
65470;DHT22;52067;50.710;14.492;2023-05-03T15:35:01;18.18;38.11
65470;DHT22;52067;50.710;14.492;2023-05-03T15:37:33;19.54;35.34
65470;DHT22;52067;50.710;14.492;2023-05-03T15:40:04;18.79;37.37
65470;DHT22;52067;50.710;14.492;2023-05-03T15:42:30;19.15;35.15